createdAt,value
2019-02-14T00:00:33.447Z,979.81
2019-02-14T00:01:33.442Z,979.84
2019-02-14T00:02:33.430Z,979.86
2019-02-14T00:03:33.440Z,979.85
2019-02-14T00:04:33.412Z,979.85
2019-02-14T00:05:33.438Z,979.86
2019-02-14T00:06:33.394Z,979.82
2019-02-14T00:07:33.389Z,979.86
2019-02-14T00:08:33.384Z,979.79
2019-02-14T00:09:33.400Z,979.85
2019-02-14T00:10:33.361Z,979.83
2019-02-14T00:11:33.360Z,979.83
2019-02-14T00:12:33.350Z,979.81
2019-02-14T00:13:33.343Z,979.79
2019-02-14T00:14:33.332Z,979.74
2019-02-14T00:15:33.328Z,979.72
2019-02-14T00:16:33.320Z,979.67
2019-02-14T00:17:33.306Z,979.67
2019-02-14T00:18:33.300Z,979.62
2019-02-14T00:19:33.290Z,979.62
2019-02-14T00:20:33.284Z,979.64
2019-02-14T00:21:33.287Z,979.61
2019-02-14T00:22:33.272Z,979.59
2019-02-14T00:23:33.262Z,979.64
2019-02-14T00:24:33.256Z,979.70
2019-02-14T00:25:33.271Z,979.70
2019-02-14T00:26:33.269Z,979.74
2019-02-14T00:27:33.232Z,979.74
2019-02-14T00:28:33.221Z,979.73
2019-02-14T00:29:33.214Z,979.71
2019-02-14T00:30:33.206Z,979.74
2019-02-14T00:31:33.211Z,979.74
2019-02-14T00:32:33.209Z,979.79
2019-02-14T00:33:33.182Z,979.78
2019-02-14T00:34:33.198Z,979.84
2019-02-14T00:35:33.162Z,979.82
2019-02-14T00:36:33.159Z,979.85
2019-02-14T00:37:33.173Z,979.88
2019-02-14T00:38:33.152Z,979.88
2019-02-14T00:39:33.152Z,979.89
2019-02-14T00:40:33.126Z,979.87
2019-02-14T00:41:33.119Z,979.92
2019-02-14T00:42:33.122Z,979.97
2019-02-14T00:43:33.107Z,979.99
2019-02-14T00:44:33.096Z,979.96
2019-02-14T00:45:34.704Z,979.98
2019-02-14T00:46:33.122Z,979.92
2019-02-14T00:47:33.071Z,979.95
2019-02-14T00:48:33.064Z,979.96
2019-02-14T00:49:33.056Z,979.90
2019-02-14T00:50:33.051Z,979.94
2019-02-14T00:51:33.041Z,979.90
2019-02-14T00:52:33.038Z,979.95
2019-02-14T00:53:33.046Z,979.91
2019-02-14T00:54:33.054Z,979.94
2019-02-14T00:55:33.014Z,979.89
2019-02-14T00:56:33.003Z,979.87
2019-02-14T00:57:33.001Z,979.88
2019-02-14T00:58:32.987Z,979.89
2019-02-14T00:59:32.986Z,979.86
2019-02-14T01:00:32.977Z,979.85
2019-02-14T01:01:32.965Z,979.95
2019-02-14T01:02:32.959Z,979.91
2019-02-14T01:03:32.952Z,979.93
2019-02-14T01:04:32.943Z,979.92
2019-02-14T01:05:33.851Z,979.91
2019-02-14T01:06:32.932Z,979.97
2019-02-14T01:07:32.918Z,979.98
2019-02-14T01:08:32.911Z,979.91
2019-02-14T01:09:32.902Z,980.06
2019-02-14T01:10:32.894Z,980.02
2019-02-14T01:11:32.890Z,980.02
2019-02-14T01:12:32.878Z,980.08
2019-02-14T01:13:32.878Z,980.10
2019-02-14T01:14:32.865Z,980.07
2019-02-14T01:15:32.880Z,980.11
2019-02-14T01:16:32.846Z,980.15
2019-02-14T01:17:32.840Z,980.19
2019-02-14T01:18:32.834Z,980.16
2019-02-14T01:19:32.827Z,980.17
2019-02-14T01:20:32.814Z,980.14
2019-02-14T01:21:32.807Z,980.20
2019-02-14T01:22:32.795Z,980.18
2019-02-14T01:23:32.790Z,980.15
2019-02-14T01:24:32.783Z,980.18
2019-02-14T01:25:32.774Z,980.15
2019-02-14T01:26:32.769Z,980.18
2019-02-14T01:27:32.763Z,980.15
2019-02-14T01:28:32.778Z,980.16
2019-02-14T01:29:32.750Z,980.14
2019-02-14T01:30:32.740Z,980.18
2019-02-14T01:31:32.755Z,980.22
2019-02-14T01:32:32.716Z,980.24
2019-02-14T01:33:32.713Z,980.24
2019-02-14T01:34:32.700Z,980.20
2019-02-14T01:35:32.692Z,980.19
2019-02-14T01:36:32.683Z,980.21
2019-02-14T01:37:32.674Z,980.21
2019-02-14T01:38:32.671Z,980.19
2019-02-14T01:39:32.660Z,980.18
2019-02-14T01:40:32.683Z,980.21
2019-02-14T01:41:32.662Z,980.22
2019-02-14T01:42:32.635Z,980.19
2019-02-14T01:43:32.635Z,980.20
2019-02-14T01:44:32.615Z,980.17
2019-02-14T01:45:32.608Z,980.13
2019-02-14T01:46:32.599Z,980.19
2019-02-14T01:47:32.592Z,980.14
2019-02-14T01:48:32.581Z,980.10
2019-02-14T01:49:32.571Z,980.06
2019-02-14T01:50:32.562Z,980.08
2019-02-14T01:51:32.562Z,980.05
2019-02-14T01:52:32.548Z,980.07
2019-02-14T01:53:32.543Z,980.04
2019-02-14T01:54:32.546Z,980.05
2019-02-14T01:55:32.673Z,980.01
2019-02-14T01:56:32.514Z,980.03
2019-02-14T01:57:32.511Z,979.97
2019-02-14T01:58:32.498Z,979.97
2019-02-14T01:59:32.487Z,979.96
2019-02-14T02:00:32.482Z,979.99
2019-02-14T02:01:32.472Z,979.95
2019-02-14T02:02:32.462Z,979.94
2019-02-14T02:03:32.457Z,979.95
2019-02-14T02:04:32.475Z,979.98
2019-02-14T02:05:32.439Z,979.94
2019-02-14T02:06:32.429Z,979.94
2019-02-14T02:07:32.422Z,979.94
2019-02-14T02:08:32.411Z,979.94
2019-02-14T02:09:32.402Z,979.87
2019-02-14T02:10:32.395Z,979.89
2019-02-14T02:11:32.416Z,979.93
2019-02-14T02:12:32.393Z,979.90
2019-02-14T02:13:32.375Z,979.93
2019-02-14T02:14:32.365Z,979.93
2019-02-14T02:15:32.358Z,980.02
2019-02-14T02:16:32.346Z,979.98
2019-02-14T02:17:32.345Z,979.97
2019-02-14T02:18:32.336Z,979.98
2019-02-14T02:19:32.322Z,979.99
2019-02-14T02:20:33.541Z,979.97
2019-02-14T02:21:32.309Z,980.00
2019-02-14T02:22:32.298Z,979.97
2019-02-14T02:23:32.292Z,979.98
2019-02-14T02:24:32.282Z,979.91
2019-02-14T02:25:32.283Z,979.95
2019-02-14T02:26:32.266Z,979.97
2019-02-14T02:27:32.261Z,979.94
2019-02-14T02:28:32.257Z,979.99
2019-02-14T02:29:32.245Z,979.99
2019-02-14T02:30:32.238Z,980.01
2019-02-14T02:31:32.228Z,979.97
2019-02-14T02:32:32.221Z,980.08
2019-02-14T02:33:32.214Z,980.08
2019-02-14T02:34:32.222Z,980.17
2019-02-14T02:35:32.197Z,980.14
2019-02-14T02:36:32.189Z,980.10
2019-02-14T02:37:32.189Z,980.18
2019-02-14T02:38:32.173Z,980.24
2019-02-14T02:39:32.172Z,980.22
2019-02-14T02:40:32.161Z,980.27
2019-02-14T02:41:32.157Z,980.28
2019-02-14T02:42:32.162Z,980.32
2019-02-14T02:43:32.138Z,980.29
2019-02-14T02:44:32.123Z,980.29
2019-02-14T02:45:32.119Z,980.28
2019-02-14T02:46:32.109Z,980.30
2019-02-14T02:47:32.100Z,980.24
2019-02-14T02:48:32.107Z,980.27
2019-02-14T02:49:32.087Z,980.23
2019-02-14T02:50:32.078Z,980.24
2019-02-14T02:51:32.074Z,980.28
2019-02-14T02:52:32.066Z,980.22
2019-02-14T02:53:32.054Z,980.22
2019-02-14T02:54:32.046Z,980.19
2019-02-14T02:55:32.076Z,980.19
2019-02-14T02:56:32.031Z,980.26
2019-02-14T02:57:32.052Z,980.26
2019-02-14T02:58:32.015Z,980.28
2019-02-14T02:59:32.007Z,980.28
2019-02-14T03:00:31.999Z,980.24
2019-02-14T03:01:31.996Z,980.28
2019-02-14T03:02:31.986Z,980.32
2019-02-14T03:03:31.983Z,980.27
2019-02-14T03:04:31.998Z,980.29
2019-02-14T03:05:31.969Z,980.28
2019-02-14T03:06:31.952Z,980.25
2019-02-14T03:07:31.944Z,980.28
2019-02-14T03:08:31.944Z,980.26
2019-02-14T03:09:31.929Z,980.22
2019-02-14T03:10:31.921Z,980.26
2019-02-14T03:11:31.914Z,980.26
2019-02-14T03:12:31.944Z,980.26
2019-02-14T03:13:31.907Z,980.26
2019-02-14T03:14:31.891Z,980.26
2019-02-14T03:15:31.885Z,980.22
2019-02-14T03:16:31.875Z,980.22
2019-02-14T03:17:31.865Z,980.21
2019-02-14T03:18:31.857Z,980.21
2019-02-14T03:19:31.849Z,980.18
2019-02-14T03:20:31.842Z,980.23
2019-02-14T03:21:31.830Z,980.25
2019-02-14T03:22:31.824Z,980.29
2019-02-14T03:23:31.817Z,980.28
2019-02-14T03:24:31.806Z,980.29
2019-02-14T03:25:31.801Z,980.31
2019-02-14T03:26:31.788Z,980.33
2019-02-14T03:27:31.790Z,980.29
2019-02-14T03:28:31.772Z,980.28
2019-02-14T03:29:31.774Z,980.29
2019-02-14T03:30:31.759Z,980.31
2019-02-14T03:31:31.749Z,980.36
2019-02-14T03:32:31.744Z,980.31
2019-02-14T03:33:31.735Z,980.29
2019-02-14T03:34:31.722Z,980.28
2019-02-14T03:35:31.714Z,980.25
2019-02-14T03:36:31.704Z,980.19
2019-02-14T03:37:31.699Z,980.24
2019-02-14T03:38:31.687Z,980.21
2019-02-14T03:39:31.681Z,980.26
2019-02-14T03:40:31.671Z,980.27
2019-02-14T03:41:31.661Z,980.23
2019-02-14T03:42:31.684Z,980.22
2019-02-14T03:43:31.662Z,980.23
2019-02-14T03:45:25.380Z,980.18
2019-02-14T03:46:25.396Z,980.13
2019-02-14T03:48:18.357Z,980.17
2019-02-14T03:49:18.456Z,980.18
2019-02-14T03:51:11.240Z,980.23
2019-02-14T03:52:11.291Z,980.17
2019-02-14T03:54:04.804Z,980.21
2019-02-14T03:55:04.019Z,980.19
2019-02-14T03:56:57.544Z,980.23
2019-02-14T03:57:57.063Z,980.22
2019-02-14T03:59:50.435Z,980.24
2019-02-14T04:00:50.319Z,980.22
2019-02-14T04:02:43.325Z,980.24
2019-02-14T04:03:43.264Z,980.25
2019-02-14T04:05:36.186Z,980.26
2019-02-14T04:06:36.068Z,980.26
2019-02-14T04:08:29.009Z,980.32
2019-02-14T04:09:29.001Z,980.32
2019-02-14T04:11:22.392Z,980.36
2019-02-14T04:12:22.209Z,980.34
2019-02-14T04:14:15.616Z,980.37
2019-02-14T04:15:15.832Z,980.33
2019-02-14T04:17:08.711Z,980.42
2019-02-14T04:18:08.484Z,980.37
2019-02-14T04:20:01.835Z,980.43
2019-02-14T04:21:01.802Z,980.51
2019-02-14T04:22:54.803Z,980.54
2019-02-14T04:23:54.885Z,980.51
2019-02-14T04:25:47.641Z,980.46
2019-02-14T04:26:47.746Z,980.42
2019-02-14T04:28:40.480Z,980.39
2019-02-14T04:29:40.413Z,980.38
2019-02-14T04:31:33.302Z,980.39
2019-02-14T04:32:33.322Z,980.38
2019-02-14T04:34:26.674Z,980.33
2019-02-14T04:35:26.668Z,980.33
2019-02-14T04:37:20.095Z,980.37
2019-02-14T04:38:19.946Z,980.37
2019-02-14T04:40:12.930Z,980.33
2019-02-14T04:41:12.877Z,980.32
2019-02-14T04:43:05.861Z,980.33
2019-02-14T04:44:05.604Z,980.37
2019-02-14T04:45:59.166Z,980.32
2019-02-14T04:46:58.511Z,980.32
2019-02-14T04:48:51.466Z,980.34
2019-02-14T04:49:51.406Z,980.33
2019-02-14T04:51:44.338Z,980.29
2019-02-14T04:52:44.207Z,980.26
2019-02-14T04:54:37.329Z,980.31
2019-02-14T04:55:36.850Z,980.27
2019-02-14T04:57:30.618Z,980.30
2019-02-14T04:58:30.346Z,980.31
2019-02-14T05:00:23.984Z,980.32
2019-02-14T05:01:23.875Z,980.37
2019-02-14T05:03:16.762Z,980.40
2019-02-14T05:04:16.666Z,980.40
2019-02-14T05:06:10.349Z,980.46
2019-02-14T05:07:09.995Z,980.45
2019-02-14T05:09:03.022Z,980.47
2019-02-14T05:10:03.020Z,980.49
2019-02-14T05:11:55.798Z,980.49
2019-02-14T05:12:55.615Z,980.49
2019-02-14T05:14:48.630Z,980.45
2019-02-14T05:15:48.465Z,980.49
2019-02-14T05:17:42.115Z,980.53
2019-02-14T05:18:41.910Z,980.51
2019-02-14T05:20:34.905Z,980.45
2019-02-14T05:21:34.770Z,980.46
2019-02-14T05:23:28.005Z,980.46
2019-02-14T05:24:27.351Z,980.46
2019-02-14T05:26:22.613Z,980.47
2019-02-14T05:27:20.889Z,980.48
2019-02-14T05:29:13.734Z,980.53
2019-02-14T05:30:13.781Z,980.53
2019-02-14T05:32:06.713Z,980.51
2019-02-14T05:33:06.534Z,980.51
2019-02-14T05:34:59.596Z,980.52
2019-02-14T05:35:59.339Z,980.52
2019-02-14T05:37:52.737Z,980.56
2019-02-14T05:38:52.602Z,980.49
2019-02-14T05:40:45.492Z,980.59
2019-02-14T05:41:45.314Z,980.59
2019-02-14T05:43:38.897Z,980.54
2019-02-14T05:44:38.811Z,980.51
2019-02-14T05:46:31.838Z,980.62
2019-02-14T05:47:31.512Z,980.65
2019-02-14T05:49:25.046Z,980.61
2019-02-14T05:50:24.947Z,980.65
2019-02-14T05:52:17.884Z,980.64
2019-02-14T05:53:17.809Z,980.65
2019-02-14T05:55:10.948Z,980.67
2019-02-14T05:56:10.603Z,980.73
2019-02-14T05:58:03.980Z,980.77
2019-02-14T05:59:03.808Z,980.73
2019-02-14T06:00:56.920Z,980.82
2019-02-14T06:01:56.844Z,980.83
2019-02-14T06:03:49.727Z,980.84
2019-02-14T06:04:49.617Z,980.86
2019-02-14T06:06:42.711Z,980.91
2019-02-14T06:07:42.321Z,980.92
2019-02-14T06:09:35.161Z,980.98
2019-02-14T06:10:35.123Z,980.94
2019-02-14T06:12:28.591Z,980.91
2019-02-14T06:13:28.518Z,980.90
2019-02-14T06:15:21.486Z,980.92
2019-02-14T06:16:21.353Z,980.89
2019-02-14T06:18:14.629Z,980.97
2019-02-14T06:19:14.616Z,980.99
2019-02-14T06:21:07.596Z,981.00
2019-02-14T06:22:07.447Z,981.02
2019-02-14T06:24:00.904Z,981.06
2019-02-14T06:25:00.771Z,981.13
2019-02-14T06:26:53.774Z,981.14
2019-02-14T06:27:53.643Z,981.16
2019-02-14T06:29:47.000Z,981.16
2019-02-14T06:30:46.936Z,981.16
2019-02-14T06:32:39.921Z,981.18
2019-02-14T06:33:39.827Z,981.18
2019-02-14T06:35:33.462Z,981.18
2019-02-14T06:36:33.258Z,981.18
2019-02-14T06:38:26.339Z,981.21
2019-02-14T06:39:26.093Z,981.19
2019-02-14T06:41:19.201Z,981.14
2019-02-14T06:42:19.008Z,981.16
2019-02-14T06:44:12.532Z,981.17
2019-02-14T06:45:12.202Z,981.16
2019-02-14T06:47:05.204Z,981.17
2019-02-14T06:48:05.027Z,981.19
2019-02-14T06:49:58.489Z,981.18
2019-02-14T06:50:58.389Z,981.20
2019-02-14T06:52:51.418Z,981.16
2019-02-14T06:53:51.390Z,981.16
2019-02-14T06:55:44.916Z,981.13
2019-02-14T06:56:44.590Z,981.14
2019-02-14T06:58:37.694Z,981.24
2019-02-14T06:59:37.771Z,981.23
2019-02-14T07:01:30.523Z,981.29
2019-02-14T07:02:30.208Z,981.31
2019-02-14T07:04:23.616Z,981.35
2019-02-14T07:05:23.560Z,981.35
2019-02-14T07:07:18.537Z,981.40
2019-02-14T07:08:16.309Z,981.39
2019-02-14T07:10:09.934Z,981.49
2019-02-14T07:11:09.682Z,981.49
2019-02-14T07:12:09.799Z,981.45
2019-02-14T07:13:09.666Z,981.42
2019-02-14T07:14:09.838Z,981.47
2019-02-14T07:15:09.580Z,981.47
2019-02-14T07:16:09.718Z,981.47
2019-02-14T07:17:09.558Z,981.47
2019-02-14T07:18:09.563Z,981.46
2019-02-14T07:19:09.543Z,981.48
2019-02-14T07:20:09.532Z,981.47
2019-02-14T07:21:09.540Z,981.45
2019-02-14T07:22:09.512Z,981.46
2019-02-14T07:23:09.503Z,981.45
2019-02-14T07:24:09.495Z,981.43
2019-02-14T07:25:09.486Z,981.43
2019-02-14T07:26:09.474Z,981.46
2019-02-14T07:27:09.468Z,981.48
2019-02-14T07:28:09.455Z,981.54
2019-02-14T07:29:09.447Z,981.48
2019-02-14T07:30:09.437Z,981.43
2019-02-14T07:31:09.429Z,981.47
2019-02-14T07:32:09.426Z,981.46
2019-02-14T07:33:09.435Z,981.47
2019-02-14T07:34:09.408Z,981.42
2019-02-14T07:35:09.412Z,981.42
2019-02-14T07:36:09.381Z,981.39
2019-02-14T07:37:09.376Z,981.43
2019-02-14T07:38:09.366Z,981.46
2019-02-14T07:39:11.051Z,981.40
2019-02-14T07:40:09.344Z,981.39
2019-02-14T07:41:09.333Z,981.36
2019-02-14T07:42:09.326Z,981.43
2019-02-14T07:43:09.361Z,981.40
2019-02-14T07:44:09.313Z,981.38
2019-02-14T07:45:09.314Z,981.36
2019-02-14T07:46:09.300Z,981.37
2019-02-14T07:47:09.283Z,981.36
2019-02-14T07:48:09.278Z,981.30
2019-02-14T07:49:09.266Z,981.39
2019-02-14T07:50:09.256Z,981.35
2019-02-14T07:51:09.257Z,981.38
2019-02-14T07:52:09.234Z,981.34
2019-02-14T07:53:09.223Z,981.29
2019-02-14T07:54:09.217Z,981.27
2019-02-14T07:55:09.333Z,981.31
2019-02-14T07:56:09.199Z,981.32
2019-02-14T07:57:09.188Z,981.36
2019-02-14T07:58:09.181Z,981.32
2019-02-14T07:59:09.175Z,981.38
2019-02-14T08:00:09.168Z,981.40
2019-02-14T08:01:09.157Z,981.44
2019-02-14T08:02:09.176Z,981.52
2019-02-14T08:03:09.138Z,981.51
2019-02-14T08:04:09.135Z,981.53
2019-02-14T08:05:09.119Z,981.47
2019-02-14T08:06:09.114Z,981.53
2019-02-14T08:07:09.105Z,981.54
2019-02-14T08:08:09.100Z,981.59
2019-02-14T08:09:09.089Z,981.53
2019-02-14T08:10:09.118Z,981.54
2019-02-14T08:11:09.085Z,981.49
2019-02-14T08:12:09.066Z,981.48
2019-02-14T08:13:09.071Z,981.48
2019-02-14T08:14:09.053Z,981.39
2019-02-14T08:15:09.043Z,981.35
2019-02-14T08:16:09.033Z,981.39
2019-02-14T08:17:09.026Z,981.40
2019-02-14T08:18:09.039Z,981.45
2019-02-14T08:19:09.017Z,981.44
2019-02-14T08:20:09.006Z,981.44
2019-02-14T08:21:08.997Z,981.45
2019-02-14T08:22:08.989Z,981.45
2019-02-14T08:23:08.983Z,981.49
2019-02-14T08:24:08.977Z,981.46
2019-02-14T08:25:08.980Z,981.42
2019-02-14T08:26:10.753Z,981.46
2019-02-14T08:27:09.004Z,981.47
2019-02-14T08:28:08.955Z,981.49
2019-02-14T08:29:08.946Z,981.48
2019-02-14T08:30:08.935Z,981.48
2019-02-14T08:31:08.931Z,981.51
2019-02-14T08:32:08.921Z,981.55
2019-02-14T08:33:08.916Z,981.57
2019-02-14T08:34:08.911Z,981.54
2019-02-14T08:35:08.903Z,981.54
2019-02-14T08:36:08.926Z,981.55
2019-02-14T08:37:08.888Z,981.56
2019-02-14T08:38:08.883Z,981.54
2019-02-14T08:39:08.877Z,981.58
2019-02-14T08:40:08.870Z,981.63
2019-02-14T08:41:08.867Z,981.62
2019-02-14T08:42:08.857Z,981.68
2019-02-14T08:43:08.856Z,981.71
2019-02-14T08:44:08.849Z,981.71
2019-02-14T08:45:08.843Z,981.75
2019-02-14T08:46:08.837Z,981.74
2019-02-14T08:47:08.831Z,981.71
2019-02-14T08:48:08.824Z,981.67
2019-02-14T08:49:08.821Z,981.67
2019-02-14T08:50:08.816Z,981.60
2019-02-14T08:51:08.807Z,981.62
2019-02-14T08:52:08.809Z,981.61
2019-02-14T08:53:08.808Z,981.60
2019-02-14T08:54:08.788Z,981.58
2019-02-14T08:55:10.019Z,981.56
2019-02-14T08:56:08.780Z,981.57
2019-02-14T08:57:08.779Z,981.62
2019-02-14T08:58:08.773Z,981.65
2019-02-14T08:59:08.768Z,981.70
2019-02-14T09:00:08.765Z,981.71
2019-02-14T09:01:08.756Z,981.68
2019-02-14T09:02:08.748Z,981.68
2019-02-14T09:03:08.760Z,981.66
2019-02-14T09:04:08.744Z,981.67
2019-02-14T09:05:08.735Z,981.70
2019-02-14T09:06:08.730Z,981.72
2019-02-14T09:07:08.726Z,981.81
2019-02-14T09:08:08.721Z,981.83
2019-02-14T09:09:08.713Z,981.86
2019-02-14T09:10:10.691Z,981.94
2019-02-14T09:11:08.707Z,981.88
2019-02-14T09:12:08.704Z,981.85
2019-02-14T09:13:16.814Z,981.91
2019-02-14T09:14:08.695Z,981.87
2019-02-14T09:15:08.692Z,981.92
2019-02-14T09:16:08.698Z,981.95
2019-02-14T09:17:08.686Z,982.18
2019-02-14T09:18:08.695Z,981.97
2019-02-14T09:19:08.683Z,981.96
2019-02-14T09:20:08.695Z,982.01
2019-02-14T09:21:08.671Z,982.04
2019-02-14T09:22:08.669Z,982.09
2019-02-14T09:23:08.683Z,982.24
2019-02-14T09:24:08.665Z,982.32
2019-02-14T09:25:08.663Z,982.40
2019-02-14T09:26:08.670Z,982.35
2019-02-14T09:27:08.659Z,982.49
2019-02-14T09:28:08.659Z,982.65
2019-02-14T09:29:08.665Z,982.73
2019-02-14T09:30:08.667Z,982.75
2019-02-14T09:31:08.674Z,982.62
2019-02-14T09:32:08.666Z,982.64
2019-02-14T09:33:08.671Z,982.74
2019-02-14T09:34:08.678Z,982.83
2019-02-14T09:35:08.709Z,982.82
2019-02-14T09:36:08.682Z,982.89
2019-02-14T09:37:08.690Z,982.94
2019-02-14T09:38:08.695Z,982.97
2019-02-14T09:39:08.705Z,983.02
2019-02-14T09:40:08.705Z,982.92
2019-02-14T09:41:08.730Z,982.93
2019-02-14T09:42:08.718Z,982.84
2019-02-14T09:43:08.729Z,982.95
2019-02-14T09:44:08.743Z,982.87
2019-02-14T09:45:08.748Z,982.89
2019-02-14T09:46:08.750Z,982.99
2019-02-14T09:47:08.759Z,983.10
2019-02-14T09:48:08.767Z,983.11
2019-02-14T09:49:08.775Z,983.03
2019-02-14T09:50:08.780Z,982.94
2019-02-14T09:51:08.798Z,982.87
2019-02-14T09:52:08.821Z,982.75
2019-02-14T09:53:08.822Z,982.89
2019-02-14T09:54:08.813Z,983.03
2019-02-14T09:55:08.834Z,983.02
2019-02-14T09:56:08.835Z,982.94
2019-02-14T09:57:08.852Z,982.87
2019-02-14T09:58:08.852Z,982.88
2019-02-14T09:59:08.875Z,982.50
2019-02-14T10:00:08.870Z,982.72
2019-02-14T10:01:08.900Z,982.56
2019-02-14T10:02:08.889Z,982.29
2019-02-14T10:03:08.898Z,982.79
2019-02-14T10:04:08.917Z,982.81
2019-02-14T10:05:08.939Z,982.81
2019-02-14T10:06:08.928Z,982.95
2019-02-14T10:07:08.941Z,982.99
2019-02-14T10:08:12.716Z,982.99
2019-02-14T10:09:08.954Z,983.02
2019-02-14T10:10:08.965Z,983.07
2019-02-14T10:11:08.975Z,983.10
2019-02-14T10:12:09.005Z,983.10
2019-02-14T10:13:08.991Z,983.13
2019-02-14T10:14:09.004Z,983.06
2019-02-14T10:15:09.011Z,983.03
2019-02-14T10:16:09.022Z,982.63
2019-02-14T10:17:09.030Z,983.00
2019-02-14T10:18:09.051Z,982.84
2019-02-14T10:19:09.050Z,983.15
2019-02-14T10:20:09.063Z,983.10
2019-02-14T10:21:09.070Z,982.62
2019-02-14T10:22:09.088Z,983.07
2019-02-14T10:23:09.093Z,982.78
2019-02-14T10:24:09.122Z,982.54
2019-02-14T10:25:09.130Z,982.53
2019-02-14T10:26:09.123Z,982.68
2019-02-14T10:27:09.132Z,982.60
2019-02-14T10:28:09.147Z,982.45
2019-02-14T10:29:09.156Z,982.75
2019-02-14T10:30:09.160Z,982.58
2019-02-14T10:31:09.170Z,982.63
2019-02-14T10:32:09.179Z,982.59
2019-02-14T10:33:09.190Z,982.56
2019-02-14T10:34:09.208Z,982.81
2019-02-14T10:35:09.208Z,982.46
2019-02-14T10:36:09.217Z,982.34
2019-02-14T10:37:09.225Z,982.30
2019-02-14T10:38:09.235Z,982.18
2019-02-14T10:39:09.284Z,982.12
2019-02-14T10:40:09.260Z,982.06
2019-02-14T10:41:09.266Z,982.11
2019-02-14T10:42:09.272Z,982.07
2019-02-14T10:43:09.285Z,982.08
2019-02-14T10:44:09.294Z,982.01
2019-02-14T10:45:09.299Z,982.00
2019-02-14T10:46:09.303Z,982.01
2019-02-14T10:47:09.313Z,982.04
2019-02-14T10:48:09.319Z,982.04
2019-02-14T10:49:09.326Z,982.03
2019-02-14T10:50:09.335Z,982.00
2019-02-14T10:51:09.343Z,981.92
2019-02-14T10:52:09.352Z,981.93
2019-02-14T10:53:09.354Z,981.91
2019-02-14T10:54:09.365Z,981.89
2019-02-14T10:55:09.369Z,981.88
2019-02-14T10:56:09.372Z,981.89
2019-02-14T10:57:09.376Z,981.90
2019-02-14T10:58:09.381Z,981.92
2019-02-14T10:59:09.392Z,981.90
2019-02-14T11:00:09.394Z,981.84
2019-02-14T11:01:09.408Z,981.85
2019-02-14T11:02:09.407Z,981.83
2019-02-14T11:03:09.413Z,981.77
2019-02-14T11:04:09.422Z,981.81
2019-02-14T11:05:09.421Z,981.81
2019-02-14T11:06:09.422Z,981.78
2019-02-14T11:07:09.451Z,981.80
2019-02-14T11:08:09.434Z,981.79
2019-02-14T11:09:09.440Z,981.76
2019-02-14T11:10:09.450Z,981.78
2019-02-14T11:11:09.444Z,981.80
2019-02-14T11:12:09.461Z,981.83
2019-02-14T11:13:09.477Z,981.86
2019-02-14T11:14:09.458Z,981.82
2019-02-14T11:15:09.477Z,981.82
2019-02-14T11:16:09.903Z,981.80
2019-02-14T11:17:09.471Z,981.74
2019-02-14T11:18:09.468Z,981.74
2019-02-14T11:19:09.472Z,981.73
2019-02-14T11:20:09.474Z,981.67
2019-02-14T11:21:09.510Z,981.66
2019-02-14T11:22:09.486Z,981.66
2019-02-14T11:23:09.485Z,981.69
2019-02-14T11:24:09.492Z,981.67
2019-02-14T11:25:09.497Z,981.63
2019-02-14T11:26:09.500Z,981.65
2019-02-14T11:27:09.511Z,981.57
2019-02-14T11:28:09.499Z,981.54
2019-02-14T11:29:09.503Z,981.50
2019-02-14T11:30:09.498Z,981.52
2019-02-14T11:31:09.502Z,981.55
2019-02-14T11:32:09.505Z,981.51
2019-02-14T11:33:09.503Z,981.53
2019-02-14T11:34:09.505Z,981.55
2019-02-14T11:35:09.513Z,981.51
2019-02-14T11:36:09.507Z,981.56
2019-02-14T11:37:09.512Z,981.57
2019-02-14T11:38:09.512Z,981.54
2019-02-14T11:39:09.514Z,981.50
2019-02-14T11:40:09.516Z,981.50
2019-02-14T11:41:09.514Z,981.42
2019-02-14T11:42:09.512Z,981.43
2019-02-14T11:43:09.514Z,981.42
2019-02-14T11:44:09.542Z,981.41
2019-02-14T11:45:09.543Z,981.39
2019-02-14T11:46:09.577Z,981.39
2019-02-14T11:47:09.519Z,981.39
2019-02-14T11:48:09.520Z,981.38
2019-02-14T11:49:09.522Z,981.40
2019-02-14T11:50:09.520Z,981.45
2019-02-14T11:51:09.518Z,981.41
2019-02-14T11:52:09.520Z,981.35
2019-02-14T11:53:14.173Z,981.29
2019-02-14T11:54:09.522Z,981.27
2019-02-14T11:55:09.519Z,981.24
2019-02-14T11:56:10.028Z,981.17
2019-02-14T11:57:09.521Z,981.19
2019-02-14T11:58:09.519Z,981.17
2019-02-14T11:59:09.542Z,981.17
2019-02-14T12:00:09.520Z,981.21
2019-02-14T12:01:09.523Z,981.25
2019-02-14T12:02:09.526Z,981.23
2019-02-14T12:03:09.520Z,981.22
2019-02-14T12:04:09.524Z,981.19
2019-02-14T12:05:09.519Z,981.23
2019-02-14T12:06:09.517Z,981.22
2019-02-14T12:07:09.518Z,981.16
2019-02-14T12:08:09.709Z,981.18
2019-02-14T12:09:09.516Z,981.18
2019-02-14T12:10:13.627Z,981.19
2019-02-14T12:11:09.520Z,981.18
2019-02-14T12:12:09.522Z,981.14
2019-02-14T12:13:09.514Z,981.13
2019-02-14T12:14:09.515Z,981.16
2019-02-14T12:15:09.515Z,981.17
2019-02-14T12:16:09.549Z,981.15
2019-02-14T12:17:09.515Z,981.16
2019-02-14T12:18:09.514Z,981.15
2019-02-14T12:19:09.520Z,981.11
2019-02-14T12:20:12.371Z,981.14
2019-02-14T12:21:09.515Z,981.11
2019-02-14T12:22:09.519Z,981.11
2019-02-14T12:23:09.511Z,981.09
2019-02-14T12:24:09.524Z,981.04
2019-02-14T12:25:09.534Z,981.01
2019-02-14T12:26:09.514Z,981.11
2019-02-14T12:27:09.692Z,981.07
2019-02-14T12:28:09.514Z,981.08
2019-02-14T12:29:09.512Z,981.08
2019-02-14T12:30:09.542Z,981.04
2019-02-14T12:31:09.549Z,980.99
2019-02-14T12:32:09.514Z,981.00
2019-02-14T12:33:09.542Z,981.06
2019-02-14T12:34:09.516Z,981.02
2019-02-14T12:35:09.514Z,981.00
2019-02-14T12:36:09.571Z,981.02
2019-02-14T12:37:09.511Z,980.96
2019-02-14T12:38:09.513Z,980.91
2019-02-14T12:39:11.594Z,980.91
2019-02-14T12:40:09.588Z,980.91
2019-02-14T12:41:09.549Z,980.90
2019-02-14T12:42:09.519Z,980.96
2019-02-14T12:43:09.540Z,980.92
2019-02-14T12:44:09.517Z,980.94
2019-02-14T12:45:09.512Z,980.89
2019-02-14T12:46:09.512Z,980.94
2019-02-14T12:47:09.515Z,980.91
2019-02-14T12:48:09.524Z,980.90
2019-02-14T12:49:09.509Z,980.91
2019-02-14T12:50:09.521Z,980.89
2019-02-14T12:51:09.510Z,980.85
2019-02-14T12:52:09.514Z,980.84
2019-02-14T12:53:11.260Z,980.81
2019-02-14T12:54:09.515Z,980.80
2019-02-14T12:55:09.520Z,980.81
2019-02-14T12:56:09.536Z,980.80
2019-02-14T12:57:09.659Z,980.79
2019-02-14T12:58:09.511Z,980.76
2019-02-14T12:59:09.514Z,980.73
2019-02-14T13:00:09.543Z,980.71
2019-02-14T13:01:09.511Z,980.66
2019-02-14T13:02:09.541Z,980.69
2019-02-14T13:03:09.544Z,980.66
2019-02-14T13:04:09.550Z,980.65
2019-02-14T13:05:09.508Z,980.62
2019-02-14T13:06:09.542Z,980.63
2019-02-14T13:07:09.545Z,980.60
2019-02-14T13:08:09.511Z,980.57
2019-02-14T13:09:19.843Z,980.52
2019-02-14T13:10:09.515Z,980.54
2019-02-14T13:11:09.533Z,980.48
2019-02-14T13:12:09.513Z,980.44
2019-02-14T13:13:09.519Z,980.45
2019-02-14T13:14:09.518Z,980.43
2019-02-14T13:15:09.547Z,980.41
2019-02-14T13:16:09.537Z,980.37
2019-02-14T13:17:09.524Z,980.41
2019-02-14T13:18:09.518Z,980.40
2019-02-14T13:19:09.523Z,980.41
2019-02-14T13:20:09.529Z,980.42
2019-02-14T13:21:09.517Z,980.40
2019-02-14T13:22:09.519Z,980.38
2019-02-14T13:23:09.522Z,980.40
2019-02-14T13:24:09.638Z,980.40
2019-02-14T13:25:09.522Z,980.40
2019-02-14T13:26:09.521Z,980.40
2019-02-14T13:27:09.521Z,980.39
2019-02-14T13:28:09.525Z,980.41
2019-02-14T13:29:09.564Z,980.37
2019-02-14T13:30:09.522Z,980.37
2019-02-14T13:31:09.525Z,980.32
2019-02-14T13:32:09.526Z,980.35